Time;durP1;ratioP1;P1;durP2;ratioP2;P2;SDS_P1;SDS_P2;PMS_P1;PMS_P2;Temp;Humidity;BMP_temperature;BMP_pressure;BME280_temperature;BME280_humidity;BME280_pressure;Samples;Min_cycle;Max_cycle;Signal;HPM_P1;HPM_P2
2024/01/21 00:00:27;;;;;;;9.18;6.00;;;0.10;41.30;;;;;;5082282;28;20059;-60
2024/01/21 00:02:53;;;;;;;7.97;5.50;;;0.10;42.40;;;;;;5083441;28;20075;-58
2024/01/21 00:05:18;;;;;;;15.45;6.55;;;0.00;42.50;;;;;;5079571;28;20154;-60
2024/01/21 00:07:44;;;;;;;9.35;5.97;;;0.00;42.80;;;;;;5082371;28;20064;-54
2024/01/21 00:10:10;;;;;;;12.02;5.90;;;0.00;43.60;;;;;;5079863;28;20078;-49
2024/01/21 00:12:36;;;;;;;9.95;4.57;;;0.00;41.70;;;;;;5065039;28;20048;-59
2024/01/21 00:15:06;;;;;;;6.93;4.75;;;0.00;38.10;;;;;;5081163;28;20214;-56
2024/01/21 00:17:31;;;;;;;8.07;4.30;;;0.00;38.00;;;;;;5082384;28;20614;-59
2024/01/21 00:19:57;;;;;;;11.93;6.40;;;0.00;38.20;;;;;;5081867;28;20176;-54
2024/01/21 00:22:23;;;;;;;12.85;6.72;;;0.10;36.80;;;;;;5082350;28;20055;-57
2024/01/21 00:24:49;;;;;;;10.52;6.32;;;0.10;35.40;;;;;;5082971;28;20063;-64
2024/01/21 00:27:15;;;;;;;10.63;6.05;;;0.10;36.20;;;;;;5082323;28;20596;-57
2024/01/21 00:29:40;;;;;;;12.95;6.05;;;0.10;33.20;;;;;;5083355;28;20482;-59
2024/01/21 00:32:06;;;;;;;17.75;7.20;;;0.10;32.90;;;;;;5080354;28;20059;-60
2024/01/21 00:34:32;;;;;;;11.38;6.15;;;0.10;29.50;;;;;;5082681;28;20887;-60
2024/01/21 00:36:58;;;;;;;9.93;6.05;;;0.10;27.80;;;;;;5082107;28;20051;-57
2024/01/21 00:39:23;;;;;;;9.50;5.78;;;0.10;26.50;;;;;;5081985;28;20520;-59
2024/01/21 00:41:49;;;;;;;7.38;4.43;;;0.10;26.00;;;;;;5083521;28;20054;-53
2024/01/21 00:44:16;;;;;;;7.97;4.55;;;0.10;23.20;;;;;;5081375;28;20044;-55
2024/01/21 00:46:41;;;;;;;13.73;5.35;;;0.10;24.70;;;;;;5082554;28;20115;-55
2024/01/21 00:49:07;;;;;;;9.23;5.25;;;0.10;24.40;;;;;;5079912;28;20140;-60
2024/01/21 00:51:33;;;;;;;6.00;4.03;;;0.10;25.40;;;;;;5081730;28;20085;-56
2024/01/21 00:53:59;;;;;;;13.13;6.38;;;0.10;26.40;;;;;;5078681;28;20051;-55
2024/01/21 00:56:24;;;;;;;10.20;5.93;;;0.10;26.60;;;;;;5076056;28;20050;-61
2024/01/21 00:58:50;;;;;;;11.45;5.07;;;0.10;25.00;;;;;;5082015;28;20516;-54
2024/01/21 01:01:16;;;;;;;13.52;6.28;;;0.00;24.70;;;;;;5079230;28;20389;-58
2024/01/21 01:03:41;;;;;;;16.40;6.22;;;0.00;24.90;;;;;;5082501;28;20572;-58
2024/01/21 01:06:07;;;;;;;15.10;7.80;;;0.10;25.10;;;;;;5079552;28;20048;-59
2024/01/21 01:08:33;;;;;;;12.30;6.75;;;0.00;26.10;;;;;;5081446;28;20044;-56
2024/01/21 01:10:59;;;;;;;8.40;6.07;;;0.00;25.60;;;;;;5081578;28;20524;-50
2024/01/21 01:13:24;;;;;;;12.30;5.82;;;0.00;23.70;;;;;;5081538;28;20366;-62
2024/01/21 01:15:50;;;;;;;12.10;5.95;;;0.00;22.60;;;;;;5075826;28;20605;-57
2024/01/21 01:18:16;;;;;;;9.57;5.75;;;0.00;23.90;;;;;;5080842;28;20115;-51
2024/01/21 01:20:42;;;;;;;9.52;5.30;;;0.10;26.10;;;;;;5082012;28;20201;-59
2024/01/21 01:23:07;;;;;;;15.23;5.80;;;0.00;27.70;;;;;;5079624;28;20036;-56
2024/01/21 01:25:33;;;;;;;10.75;6.25;;;0.10;29.80;;;;;;5082978;28;20191;-55
2024/01/21 01:27:59;;;;;;;12.15;6.22;;;0.00;31.00;;;;;;5080705;28;20180;-62
2024/01/21 01:30:25;;;;;;;11.90;6.68;;;0.00;34.50;;;;;;5081404;28;20048;-57
2024/01/21 01:32:50;;;;;;;11.57;6.05;;;-0.10;36.30;;;;;;5079850;28;20569;-56
2024/01/21 01:35:16;;;;;;;11.95;6.50;;;0.00;38.30;;;;;;5079288;28;20484;-53
2024/01/21 01:37:43;;;;;;;12.95;6.95;;;0.00;39.60;;;;;;5082754;28;20068;-52
2024/01/21 01:40:09;;;;;;;9.93;6.03;;;-0.10;39.90;;;;;;5080135;28;20055;-58
2024/01/21 01:42:35;;;;;;;13.57;6.30;;;-0.10;42.00;;;;;;5082764;28;20113;-53
2024/01/21 01:45:01;;;;;;;11.68;5.40;;;-0.10;42.70;;;;;;5078385;28;20064;-50
2024/01/21 01:47:26;;;;;;;10.15;5.25;;;-0.10;43.70;;;;;;5082022;28;20459;-55
2024/01/21 01:49:54;;;;;;;12.10;5.70;;;-0.10;43.30;;;;;;5081376;28;20048;-55
2024/01/21 01:52:21;;;;;;;11.40;5.93;;;-0.10;42.30;;;;;;5080218;28;20077;-61
2024/01/21 01:54:48;;;;;;;10.38;5.68;;;-0.10;41.90;;;;;;5082100;28;20151;-57
2024/01/21 01:57:18;;;;;;;8.57;4.82;;;-0.10;39.70;;;;;;5078923;28;20052;-63
2024/01/21 01:59:43;;;;;;;9.63;5.72;;;-0.10;40.40;;;;;;5070200;28;20040;-56
2024/01/21 02:02:10;;;;;;;14.88;5.40;;;-0.10;38.50;;;;;;5080466;28;20055;-60
2024/01/21 02:04:36;;;;;;;14.90;5.53;;;0.00;37.70;;;;;;5078190;28;20364;-56
2024/01/21 02:07:02;;;;;;;7.20;4.90;;;-0.10;37.30;;;;;;5070769;28;20514;-62
2024/01/21 02:09:28;;;;;;;10.43;4.50;;;-0.10;36.00;;;;;;5081001;28;20089;-57
2024/01/21 02:11:53;;;;;;;9.35;5.20;;;-0.10;34.80;;;;;;5081993;28;20059;-53
2024/01/21 02:14:20;;;;;;;10.77;4.78;;;0.00;31.50;;;;;;5080657;28;20051;-60
2024/01/21 02:16:45;;;;;;;6.53;3.95;;;0.00;29.90;;;;;;5081862;28;20125;-58
2024/01/21 02:19:24;;;;;;;10.35;3.92;;;0.00;28.50;;;;;;5079675;28;20137;-60
2024/01/21 02:21:50;;;;;;;10.25;5.07;;;0.00;26.80;;;;;;5081505;28;20107;-59
2024/01/21 02:24:16;;;;;;;7.03;3.97;;;0.00;26.00;;;;;;5080091;28;20088;-63
2024/01/21 02:26:41;;;;;;;6.07;3.78;;;0.10;25.50;;;;;;5081420;28;20040;-58
2024/01/21 02:29:07;;;;;;;9.85;4.57;;;0.10;23.20;;;;;;5081122;28;20048;-58
2024/01/21 02:31:33;;;;;;;6.78;3.78;;;0.10;23.20;;;;;;5080609;28;20792;-59
2024/01/21 02:33:59;;;;;;;5.18;3.80;;;0.10;23.40;;;;;;5085364;28;20138;-56
2024/01/21 02:36:24;;;;;;;9.55;4.18;;;0.10;22.00;;;;;;5083187;28;20059;-58
2024/01/21 02:38:50;;;;;;;8.90;4.32;;;0.10;21.90;;;;;;5086023;28;20036;-59
2024/01/21 02:41:16;;;;;;;4.85;3.50;;;0.10;22.60;;;;;;5083717;28;20048;-59
2024/01/21 02:43:41;;;;;;;6.15;3.90;;;0.10;22.60;;;;;;5085195;28;20032;-59
2024/01/21 02:46:07;;;;;;;7.75;4.25;;;0.00;21.50;;;;;;5078489;28;20510;-62
2024/01/21 02:48:33;;;;;;;7.05;3.75;;;0.00;20.90;;;;;;5074220;28;20081;-55
2024/01/21 02:50:58;;;;;;;6.38;3.90;;;0.00;20.70;;;;;;5068527;28;20041;-56
2024/01/21 02:53:24;;;;;;;5.97;4.03;;;0.00;21.40;;;;;;5075885;28;20498;-55
2024/01/21 02:55:50;;;;;;;6.22;3.47;;;0.00;21.20;;;;;;5081485;28;20047;-60
2024/01/21 02:58:16;;;;;;;5.25;3.20;;;-0.10;21.50;;;;;;5073732;28;20052;-49
2024/01/21 03:00:41;;;;;;;8.18;4.00;;;-0.10;22.20;;;;;;5076877;28;20036;-56
2024/01/21 03:03:10;;;;;;;9.13;3.47;;;-0.10;22.50;;;;;;5082409;28;20044;-50
2024/01/21 03:05:36;;;;;;;5.45;3.63;;;-0.10;22.50;;;;;;5083587;28;20044;-57
2024/01/21 03:08:02;;;;;;;3.70;2.53;;;-0.10;22.00;;;;;;5084261;28;20482;-55
2024/01/21 03:10:28;;;;;;;8.25;2.97;;;-0.20;22.70;;;;;;5082340;28;20086;-57
2024/01/21 03:12:53;;;;;;;3.97;3.15;;;-0.10;22.40;;;;;;5084691;28;20573;-54
2024/01/21 03:15:19;;;;;;;8.43;3.30;;;-0.20;22.10;;;;;;5081463;28;20048;-57
2024/01/21 03:17:45;;;;;;;5.43;3.17;;;-0.10;21.00;;;;;;5083650;28;20482;-61
2024/01/21 03:20:12;;;;;;;6.00;3.28;;;-0.10;22.50;;;;;;5083529;28;20075;-54
2024/01/21 03:22:38;;;;;;;3.67;2.72;;;-0.10;21.90;;;;;;5084823;28;20123;-49
2024/01/21 03:25:04;;;;;;;5.22;3.28;;;-0.10;20.50;;;;;;5083284;28;20631;-57
2024/01/21 03:27:30;;;;;;;8.05;2.92;;;-0.10;20.30;;;;;;5083297;28;20460;-57
2024/01/21 03:29:55;;;;;;;7.78;2.88;;;-0.10;19.60;;;;;;5084520;28;20040;-58
2024/01/21 03:32:22;;;;;;;5.90;2.83;;;-0.10;18.10;;;;;;5083056;28;20390;-56
2024/01/21 03:34:47;;;;;;;4.45;2.80;;;0.00;17.00;;;;;;5083668;28;20277;-56
2024/01/21 03:37:14;;;;;;;6.80;2.63;;;0.00;16.50;;;;;;5083683;28;20044;-60
2024/01/21 03:39:40;;;;;;;4.05;2.80;;;0.00;15.90;;;;;;5084713;28;20044;-58
2024/01/21 03:42:06;;;;;;;5.05;2.53;;;0.10;14.30;;;;;;5083236;28;20100;-49
2024/01/21 03:44:32;;;;;;;5.13;2.63;;;0.10;12.60;;;;;;5083140;28;20517;-55
2024/01/21 03:46:57;;;;;;;5.88;2.83;;;0.10;12.30;;;;;;5083143;28;20576;-59
2024/01/21 03:49:23;;;;;;;2.53;2.25;;;0.10;12.10;;;;;;5081747;28;20032;-56
2024/01/21 03:51:49;;;;;;;6.55;2.30;;;0.10;10.90;;;;;;5082759;28;20082;-56
2024/01/21 03:54:15;;;;;;;3.35;1.90;;;0.20;3.30;;;;;;5081605;28;20154;-57
2024/01/21 03:56:46;;;;;;;2.33;2.10;;;0.30;1.00;;;;;;5082658;28;20063;-52
2024/01/21 03:59:12;;;;;;;24.65;2.00;;;0.40;1.00;;;;;;5074094;28;20040;-59
2024/01/21 04:01:44;;;;;;;2.72;1.58;;;0.40;1.00;;;;;;5083834;28;20132;-53
2024/01/21 04:04:11;;;;;;;3.40;1.65;;;0.50;1.00;;;;;;5070414;28;20441;-49
2024/01/21 04:06:43;;;;;;;3.42;2.53;;;0.60;1.00;;;;;;5082751;28;20047;-57
2024/01/21 04:09:09;;;;;;;2.35;1.90;;;0.50;1.00;;;;;;5082181;28;20079;-52
2024/01/21 04:11:35;;;;;;;3.92;2.03;;;0.60;1.00;;;;;;5080038;28;20501;-56
2024/01/21 04:14:01;;;;;;;2.38;1.67;;;0.60;1.00;;;;;;5083029;28;20036;-52
2024/01/21 04:16:27;;;;;;;3.90;1.98;;;0.60;1.00;;;;;;5081713;28;20044;-55
2024/01/21 04:18:53;;;;;;;2.72;1.73;;;0.60;1.00;;;;;;5084003;28;20047;-60
2024/01/21 04:21:19;;;;;;;1.70;1.60;;;0.60;1.00;;;;;;5082168;28;20059;-55
2024/01/21 04:23:44;;;;;;;2.92;1.63;;;0.50;1.00;;;;;;5081861;28;20056;-57
2024/01/21 04:26:10;;;;;;;3.47;1.52;;;0.40;1.00;;;;;;5065192;28;20506;-57
2024/01/21 04:28:39;;;;;;;3.97;1.73;;;0.40;1.00;;;;;;5080045;28;20101;-60
2024/01/21 04:31:05;;;;;;;4.80;2.25;;;0.40;1.00;;;;;;5083271;28;20537;-59
2024/01/21 04:33:31;;;;;;;2.13;1.17;;;0.40;1.00;;;;;;5076568;28;20048;-59
2024/01/21 04:35:57;;;;;;;1.50;1.40;;;0.30;1.00;;;;;;5074356;28;20051;-57
2024/01/21 04:38:25;;;;;;;1.85;1.50;;;0.40;1.00;;;;;;5080209;28;20047;-52
2024/01/21 04:40:52;;;;;;;3.45;1.00;;;0.40;1.00;;;;;;5082714;28;20052;-54
2024/01/21 04:43:18;;;;;;;1.40;1.30;;;0.40;1.00;;;;;;5082254;28;20052;-53
2024/01/21 04:45:44;;;;;;;1.98;1.77;;;0.40;1.00;;;;;;5081829;28;20376;-52
2024/01/21 04:48:09;;;;;;;2.88;1.88;;;0.40;1.00;;;;;;5081716;28;20453;-63
2024/01/21 04:50:35;;;;;;;10.00;1.98;;;0.40;1.00;;;;;;5081541;28;20115;-63
2024/01/21 04:53:01;;;;;;;4.03;1.77;;;0.40;1.00;;;;;;5082765;28;20453;-60
2024/01/21 04:55:26;;;;;;;1.27;1.17;;;0.50;1.00;;;;;;5079173;28;20040;-52
2024/01/21 04:57:52;;;;;;;2.85;1.40;;;0.50;1.00;;;;;;5083073;28;20085;-52
2024/01/21 05:00:19;;;;;;;2.45;1.23;;;0.50;1.00;;;;;;5082421;28;20040;-59
2024/01/21 05:02:44;;;;;;;4.03;1.52;;;0.60;1.00;;;;;;5080200;28;20897;-63
2024/01/21 05:05:10;;;;;;;1.27;1.27;;;0.60;1.00;;;;;;5082235;28;20048;-62
2024/01/21 05:07:36;;;;;;;1.17;0.95;;;0.60;1.00;;;;;;5080766;28;20039;-60
2024/01/21 05:10:02;;;;;;;1.52;1.00;;;0.60;1.00;;;;;;5083087;28;20040;-53
2024/01/21 05:12:30;;;;;;;1.13;0.68;;;0.60;1.00;;;;;;5062696;28;20039;-58
2024/01/21 05:14:56;;;;;;;2.28;1.55;;;0.60;1.00;;;;;;5082503;28;20039;-50
2024/01/21 05:17:21;;;;;;;1.67;1.30;;;0.60;1.00;;;;;;5081986;28;20360;-60
2024/01/21 05:19:47;;;;;;;1.55;1.25;;;0.60;1.00;;;;;;5080323;28;20103;-54
2024/01/21 05:22:13;;;;;;;0.70;0.70;;;0.70;1.00;;;;;;5081163;28;20043;-57
2024/01/21 05:24:38;;;;;;;3.70;1.50;;;0.80;1.00;;;;;;5081151;28;20054;-54
2024/01/21 05:27:04;;;;;;;2.25;1.08;;;0.80;1.00;;;;;;5082272;28;20036;-60
2024/01/21 05:29:30;;;;;;;3.17;1.10;;;0.80;1.00;;;;;;5080568;28;20052;-56
2024/01/21 05:31:56;;;;;;;1.42;1.08;;;0.80;1.00;;;;;;5082591;28;20048;-53
2024/01/21 05:34:22;;;;;;;1.25;0.77;;;0.80;1.00;;;;;;5081400;28;20291;-56
2024/01/21 05:36:53;;;;;;;1.20;1.15;;;0.90;1.00;;;;;;5080539;28;20544;-56
2024/01/21 05:39:19;;;;;;;1.30;1.20;;;0.90;1.00;;;;;;5082813;28;20123;-54
2024/01/21 05:42:03;;;;;;;1.23;0.90;;;0.90;1.00;;;;;;5081060;28;20174;-58
2024/01/21 05:44:28;;;;;;;2.78;0.98;;;0.90;1.00;;;;;;5083070;28;20448;-59
2024/01/21 05:46:54;;;;;;;1.30;0.90;;;0.90;1.00;;;;;;5079637;28;20044;-58
2024/01/21 05:49:20;;;;;;;1.00;1.00;;;0.90;1.00;;;;;;5081853;28;20044;-58
2024/01/21 05:51:46;;;;;;;2.00;1.25;;;0.80;1.00;;;;;;5079242;28;20056;-53
2024/01/21 05:54:12;;;;;;;1.30;0.95;;;0.80;1.00;;;;;;5082294;28;20490;-49
2024/01/21 05:56:38;;;;;;;1.70;1.27;;;0.80;1.00;;;;;;5080253;28;20047;-50
2024/01/21 05:59:03;;;;;;;0.98;0.90;;;0.80;1.00;;;;;;5080781;28;20044;-59
2024/01/21 06:01:29;;;;;;;0.70;0.70;;;0.80;1.00;;;;;;5082746;28;20413;-60
2024/01/21 06:03:55;;;;;;;1.60;1.17;;;0.80;1.00;;;;;;5080291;28;20089;-59
2024/01/21 06:06:20;;;;;;;1.05;0.93;;;0.90;1.00;;;;;;5081222;28;20040;-56
2024/01/21 06:08:46;;;;;;;1.38;0.70;;;0.90;1.00;;;;;;5075005;28;20045;-59
2024/01/21 06:11:12;;;;;;;1.15;1.10;;;0.90;1.00;;;;;;5086488;28;20622;-53
2024/01/21 06:13:38;;;;;;;0.98;0.88;;;0.90;1.00;;;;;;5084881;28;20079;-48
2024/01/21 06:16:04;;;;;;;3.03;0.82;;;1.00;1.00;;;;;;5085489;28;20133;-59
2024/01/21 06:18:30;;;;;;;1.38;1.30;;;1.00;1.00;;;;;;5079281;28;20086;-53
2024/01/21 06:20:56;;;;;;;0.90;0.90;;;1.10;1.00;;;;;;5078307;28;20103;-56
2024/01/21 06:23:22;;;;;;;1.02;0.85;;;1.20;1.00;;;;;;5086236;28;20481;-57
2024/01/21 06:25:48;;;;;;;1.88;1.10;;;1.20;1.00;;;;;;5082685;28;20059;-49
2024/01/21 06:28:13;;;;;;;1.63;0.98;;;1.20;1.00;;;;;;5085437;28;20078;-51
2024/01/21 06:30:39;;;;;;;1.77;1.17;;;1.30;1.00;;;;;;5084555;28;20577;-56
2024/01/21 06:33:05;;;;;;;0.73;0.70;;;1.30;1.00;;;;;;5085012;28;20060;-57
2024/01/21 06:35:31;;;;;;;2.67;0.90;;;1.40;1.00;;;;;;5085771;28;20044;-57
2024/01/21 06:37:57;;;;;;;2.40;1.30;;;1.40;1.00;;;;;;5082631;28;20098;-59
2024/01/21 06:40:22;;;;;;;5.38;2.00;;;1.50;1.00;;;;;;5085684;28;20039;-53
2024/01/21 06:42:48;;;;;;;1.45;0.77;;;1.50;1.00;;;;;;5084415;28;20828;-53
2024/01/21 06:45:14;;;;;;;2.03;1.40;;;1.50;1.00;;;;;;5085628;28;20549;-56
2024/01/21 06:47:41;;;;;;;0.57;0.57;;;1.60;1.00;;;;;;5083301;28;20044;-61
2024/01/21 06:50:09;;;;;;;2.55;0.85;;;1.60;1.00;;;;;;5084514;28;20563;-54
2024/01/21 06:52:34;;;;;;;0.80;0.80;;;1.60;1.00;;;;;;5083511;28;20130;-54
2024/01/21 06:55:00;;;;;;;1.80;1.25;;;1.70;1.00;;;;;;5084074;28;20135;-61
2024/01/21 06:57:26;;;;;;;3.08;1.23;;;1.70;1.00;;;;;;5085562;28;20094;-57
2024/01/21 06:59:51;;;;;;;1.52;1.10;;;1.70;1.00;;;;;;5081790;28;20482;-59
2024/01/21 07:02:17;;;;;;;5.50;1.70;;;1.70;1.00;;;;;;5083484;28;20071;-59
2024/01/21 07:04:43;;;;;;;5.43;1.83;;;1.70;1.00;;;;;;5083322;28;20048;-56
2024/01/21 07:07:09;;;;;;;3.15;1.70;;;1.70;1.00;;;;;;5084872;28;20105;-52
2024/01/21 07:09:35;;;;;;;4.50;1.55;;;1.70;1.00;;;;;;5082203;28;20115;-50
2024/01/21 07:12:00;;;;;;;5.07;1.75;;;1.70;1.00;;;;;;5081927;28;20488;-59
2024/01/21 07:14:33;;;;;;;4.07;1.17;;;1.70;1.00;;;;;;5082968;28;20043;-56
2024/01/21 07:16:59;;;;;;;1.48;1.38;;;1.80;1.00;;;;;;5082887;28;20040;-61
2024/01/21 07:19:25;;;;;;;2.92;2.28;;;1.70;1.00;;;;;;5085124;28;20125;-59
2024/01/21 07:21:51;;;;;;;2.97;2.63;;;1.70;1.00;;;;;;5082145;28;20490;-61
2024/01/21 07:24:16;;;;;;;3.05;1.88;;;1.80;1.00;;;;;;5084728;28;20036;-53
2024/01/21 07:26:42;;;;;;;2.33;2.10;;;1.80;1.00;;;;;;5083231;28;20115;-61
2024/01/21 07:29:08;;;;;;;6.20;3.08;;;1.80;1.00;;;;;;5083768;28;20063;-59
2024/01/21 07:31:33;;;;;;;6.18;2.08;;;1.80;1.00;;;;;;5083214;28;20086;-52
2024/01/21 07:33:59;;;;;;;5.95;3.08;;;1.80;1.00;;;;;;5083402;28;20398;-61
2024/01/21 07:36:25;;;;;;;3.70;2.30;;;1.70;1.00;;;;;;5084328;28;20109;-56
2024/01/21 07:38:50;;;;;;;5.80;2.45;;;1.80;1.00;;;;;;5082584;28;20047;-55
2024/01/21 07:41:16;;;;;;;4.85;2.97;;;1.80;1.00;;;;;;5084504;28;20040;-56
2024/01/21 07:43:45;;;;;;;3.72;2.53;;;1.70;1.00;;;;;;5080808;28;20487;-53
2024/01/21 07:46:10;;;;;;;7.10;3.03;;;1.80;1.00;;;;;;5083745;28;20040;-59
2024/01/21 07:48:36;;;;;;;4.75;2.70;;;1.80;1.00;;;;;;5083452;28;20436;-52
2024/01/21 07:51:02;;;;;;;18.95;3.70;;;1.70;1.00;;;;;;5082029;28;20134;-60
2024/01/21 07:53:28;;;;;;;8.10;3.20;;;1.70;1.00;;;;;;5083683;28;20044;-63
2024/01/21 07:55:55;;;;;;;5.28;3.47;;;1.70;1.00;;;;;;5082758;28;20503;-62
2024/01/21 07:58:21;;;;;;;4.35;3.33;;;1.70;1.00;;;;;;5084119;28;20077;-54
2024/01/21 08:00:47;;;;;;;6.13;2.95;;;1.70;1.00;;;;;;5076374;28;20428;-57
2024/01/21 08:03:13;;;;;;;5.55;3.15;;;1.70;1.00;;;;;;5081605;28;20070;-57
2024/01/21 08:05:38;;;;;;;4.25;3.28;;;1.70;1.00;;;;;;5081080;28;20490;-54
2024/01/21 08:08:04;;;;;;;8.60;2.78;;;1.60;1.00;;;;;;5082305;28;20314;-56
2024/01/21 08:10:30;;;;;;;4.88;3.72;;;1.70;1.00;;;;;;5079414;28;20048;-58
2024/01/21 08:12:56;;;;;;;7.85;4.10;;;1.60;1.00;;;;;;5081423;28;20386;-60
2024/01/21 08:15:22;;;;;;;7.38;3.30;;;1.60;1.00;;;;;;5079127;28;20040;-59
2024/01/21 08:17:47;;;;;;;6.30;2.97;;;1.60;1.00;;;;;;5079019;28;20163;-58
2024/01/21 08:20:13;;;;;;;5.22;3.42;;;1.60;1.00;;;;;;5083294;28;20050;-57
2024/01/21 08:22:39;;;;;;;6.40;3.53;;;1.70;1.00;;;;;;5079412;28;20139;-52
2024/01/21 08:25:05;;;;;;;4.32;2.95;;;1.60;1.00;;;;;;5080790;28;20051;-60
2024/01/21 08:27:31;;;;;;;8.77;4.88;;;1.60;1.00;;;;;;5071037;28;20505;-49
2024/01/21 08:29:57;;;;;;;7.57;4.03;;;1.70;1.00;;;;;;5071630;28;20052;-55
2024/01/21 08:32:23;;;;;;;2.97;2.47;;;1.70;1.00;;;;;;5081207;28;20444;-56
2024/01/21 08:34:49;;;;;;;7.85;4.50;;;1.70;1.00;;;;;;5081410;28;20040;-58
2024/01/21 08:37:15;;;;;;;5.70;4.20;;;1.70;1.00;;;;;;5078596;28;20470;-51
2024/01/21 08:39:42;;;;;;;6.57;3.92;;;1.70;1.00;;;;;;5070149;28;20098;-52
2024/01/21 08:42:07;;;;;;;5.45;3.38;;;1.70;1.00;;;;;;5069102;28;20040;-60
2024/01/21 08:44:33;;;;;;;9.88;5.07;;;1.80;1.00;;;;;;5070266;28;20055;-53
2024/01/21 08:46:59;;;;;;;4.65;3.10;;;1.80;1.00;;;;;;5078843;28;20040;-57
2024/01/21 08:49:26;;;;;;;5.35;4.38;;;1.80;1.00;;;;;;5074006;28;20044;-51
2024/01/21 08:51:52;;;;;;;4.88;3.38;;;1.90;1.00;;;;;;5066631;28;20048;-59
2024/01/21 08:54:17;;;;;;;5.55;4.30;;;1.90;1.00;;;;;;5082806;28;20040;-59
2024/01/21 08:56:43;;;;;;;13.63;4.93;;;1.90;1.00;;;;;;5067404;28;20475;-57
2024/01/21 08:59:09;;;;;;;7.05;4.57;;;1.90;1.00;;;;;;5068514;28;20065;-52
2024/01/21 09:01:34;;;;;;;7.53;4.00;;;1.90;1.00;;;;;;5071934;28;20422;-61
2024/01/21 09:04:01;;;;;;;3.92;2.83;;;1.90;1.00;;;;;;5082507;28;20051;-56
2024/01/21 09:06:26;;;;;;;4.57;2.92;;;1.90;1.00;;;;;;5077236;28;20044;-49
2024/01/21 09:08:54;;;;;;;8.63;5.03;;;1.90;1.00;;;;;;5072121;28;20118;-50
2024/01/21 09:11:21;;;;;;;6.57;4.20;;;2.00;1.00;;;;;;5081291;28;20050;-57
2024/01/21 09:13:46;;;;;;;8.27;5.13;;;2.00;1.00;;;;;;5079675;28;20040;-52
2024/01/21 09:16:21;;;;;;;9.75;4.60;;;2.00;1.00;;;;;;5080292;28;20380;-52
2024/01/21 09:18:47;;;;;;;2.60;2.17;;;2.10;1.00;;;;;;5077173;28;20282;-54
2024/01/21 09:21:13;;;;;;;7.72;4.55;;;2.10;1.00;;;;;;5079681;28;20055;-60
2024/01/21 09:23:38;;;;;;;5.70;3.60;;;2.10;1.00;;;;;;5075210;28;20056;-52
2024/01/21 09:26:04;;;;;;;5.50;3.17;;;2.10;1.00;;;;;;5046236;28;20388;-56
2024/01/21 09:28:30;;;;;;;6.53;3.40;;;2.10;1.00;;;;;;5079851;28;20418;-58
2024/01/21 09:30:56;;;;;;;8.15;5.20;;;2.10;1.00;;;;;;5074313;28;20507;-61
2024/01/21 09:33:21;;;;;;;5.28;3.92;;;2.20;1.00;;;;;;5073311;28;20148;-54
2024/01/21 09:35:49;;;;;;;6.55;3.88;;;2.20;1.00;;;;;;5077061;28;20090;-59
2024/01/21 09:38:18;;;;;;;3.42;2.55;;;2.30;1.00;;;;;;5079588;28;20414;-50
2024/01/21 09:40:48;;;;;;;4.95;3.67;;;2.30;1.00;;;;;;5070796;28;20117;-61
2024/01/21 09:43:14;;;;;;;8.32;4.68;;;2.40;1.00;;;;;;5081575;28;20117;-59
2024/01/21 09:45:42;;;;;;;7.43;3.97;;;2.50;1.00;;;;;;5082058;28;20080;-48
2024/01/21 09:48:09;;;;;;;4.22;2.92;;;2.50;1.00;;;;;;5085037;28;20123;-63
2024/01/21 09:50:37;;;;;;;4.65;3.20;;;2.50;1.00;;;;;;5078924;28;20044;-63
2024/01/21 09:53:04;;;;;;;5.47;2.40;;;2.50;1.00;;;;;;5055279;28;20426;-63
2024/01/21 09:55:29;;;;;;;3.05;2.55;;;2.50;1.00;;;;;;5071545;28;20530;-58
2024/01/21 09:57:58;;;;;;;2.72;2.28;;;2.50;1.00;;;;;;5080870;28;20055;-60
2024/01/21 10:00:25;;;;;;;8.57;5.00;;;2.50;1.00;;;;;;5085369;28;20044;-60
2024/01/21 10:02:51;;;;;;;1.67;1.42;;;2.50;1.00;;;;;;5084262;28;20040;-56
2024/01/21 10:05:17;;;;;;;3.63;2.55;;;2.60;1.00;;;;;;5076224;28;20055;-56
2024/01/21 10:07:43;;;;;;;6.78;4.50;;;2.60;1.00;;;;;;5085831;28;20047;-59
2024/01/21 10:10:12;;;;;;;4.07;2.75;;;2.70;1.00;;;;;;5080963;28;20048;-60
2024/01/21 10:12:38;;;;;;;3.63;3.20;;;2.70;1.00;;;;;;5084342;28;20054;-61
2024/01/21 10:15:04;;;;;;;5.07;2.78;;;2.70;1.00;;;;;;5065894;28;20056;-63
2024/01/21 10:17:30;;;;;;;3.28;2.95;;;2.80;1.00;;;;;;5083530;28;20101;-57
2024/01/21 10:19:57;;;;;;;9.85;4.45;;;2.80;1.00;;;;;;5082965;28;20040;-58
2024/01/21 10:22:25;;;;;;;3.03;2.75;;;2.80;1.00;;;;;;5081896;28;20395;-63
2024/01/21 10:24:51;;;;;;;8.35;4.45;;;2.90;1.00;;;;;;5064781;28;20582;-55
2024/01/21 10:27:17;;;;;;;5.80;3.25;;;2.90;1.00;;;;;;5082237;28;20044;-51
2024/01/21 10:29:44;;;;;;;5.20;2.97;;;2.90;1.00;;;;;;5083457;28;20052;-57
2024/01/21 10:32:12;;;;;;;3.80;3.45;;;2.90;1.00;;;;;;5083872;28;20089;-53
2024/01/21 10:34:44;;;;;;;10.75;3.65;;;2.90;1.00;;;;;;5085235;28;20450;-49
2024/01/21 10:37:13;;;;;;;6.53;4.20;;;3.00;1.00;;;;;;5082607;28;20047;-55
2024/01/21 10:39:45;;;;;;;8.85;3.55;;;3.00;1.00;;;;;;5085223;28;20233;-53
2024/01/21 10:42:13;;;;;;;6.82;3.47;;;3.20;1.00;;;;;;5084633;28;20044;-54
2024/01/21 10:44:40;;;;;;;9.25;3.50;;;3.30;1.00;;;;;;5083934;28;20052;-61
2024/01/21 10:47:08;;;;;;;5.60;3.75;;;3.40;1.00;;;;;;5080838;28;20093;-56
2024/01/21 10:49:35;;;;;;;6.35;3.88;;;3.50;1.00;;;;;;5073179;28;20080;-57
2024/01/21 10:52:01;;;;;;;5.40;3.40;;;3.60;1.00;;;;;;5069466;28;20048;-57
2024/01/21 10:54:28;;;;;;;4.03;3.30;;;3.70;1.00;;;;;;5064204;28;20063;-61
2024/01/21 10:56:54;;;;;;;3.60;1.75;;;3.70;1.00;;;;;;5066581;28;20057;-54
2024/01/21 10:59:21;;;;;;;9.60;4.20;;;3.70;1.00;;;;;;5066792;28;20043;-53
2024/01/21 11:01:50;;;;;;;3.83;2.72;;;3.60;1.00;;;;;;5079675;28;20054;-49
2024/01/21 11:04:16;;;;;;;7.53;4.47;;;3.50;1.00;;;;;;5084581;28;20052;-60
2024/01/21 11:06:48;;;;;;;5.25;3.00;;;3.50;1.00;;;;;;5073101;28;20044;-54
2024/01/21 11:09:25;;;;;;;2.40;2.13;;;3.40;1.00;;;;;;5076902;28;20486;-59
2024/01/21 11:11:52;;;;;;;10.23;4.05;;;3.40;1.00;;;;;;5065441;28;20149;-51
2024/01/21 11:14:39;;;;;;;6.03;3.63;;;3.40;1.00;;;;;;5078126;28;20136;-61
2024/01/21 11:17:12;;;;;;;5.10;3.30;;;3.40;1.00;;;;;;5075990;28;20399;-63
2024/01/21 11:19:42;;;;;;;5.40;2.92;;;3.40;1.00;;;;;;5078466;28;20497;-60
2024/01/21 11:22:12;;;;;;;3.35;2.50;;;3.40;1.00;;;;;;5079190;28;20193;-61
2024/01/21 11:24:38;;;;;;;4.38;2.95;;;3.30;1.00;;;;;;5082159;28;20039;-56
2024/01/21 11:27:04;;;;;;;4.95;3.53;;;3.30;1.00;;;;;;5081858;28;20147;-55
2024/01/21 11:29:33;;;;;;;7.68;3.90;;;3.40;4.00;;;;;;5075071;28;20062;-54
2024/01/21 11:32:08;;;;;;;12.10;4.15;;;3.40;8.00;;;;;;5077218;28;20561;-55
2024/01/21 11:34:40;;;;;;;5.88;2.67;;;3.40;10.20;;;;;;5057112;28;20036;-57
2024/01/21 11:37:10;;;;;;;6.38;4.00;;;3.50;12.80;;;;;;5072422;28;20113;-51
2024/01/21 11:39:37;;;;;;;6.82;4.30;;;3.50;14.60;;;;;;5060963;28;20131;-52
2024/01/21 11:42:03;;;;;;;6.82;3.88;;;3.60;15.10;;;;;;5063493;28;20044;-58
2024/01/21 11:44:31;;;;;;;6.50;2.38;;;3.60;15.10;;;;;;5079960;28;20079;-60
2024/01/21 11:47:02;;;;;;;6.25;4.55;;;3.60;15.80;;;;;;5077340;28;20077;-56
2024/01/21 11:49:31;;;;;;;4.85;2.33;;;3.60;16.90;;;;;;5076468;28;20048;-55
2024/01/21 11:52:00;;;;;;;2.55;2.00;;;3.70;17.30;;;;;;5064545;28;20051;-59
2024/01/21 11:54:26;;;;;;;5.38;3.47;;;3.70;17.60;;;;;;5079616;28;20490;-56
2024/01/21 11:56:55;;;;;;;4.25;3.42;;;3.70;17.90;;;;;;5082993;28;20046;-56
2024/01/21 11:59:21;;;;;;;4.82;3.13;;;3.70;18.70;;;;;;5082397;28;20047;-56
2024/01/21 12:01:48;;;;;;;6.25;3.80;;;3.80;19.40;;;;;;5080443;28;20048;-58
2024/01/21 12:04:14;;;;;;;16.77;5.00;;;3.80;20.40;;;;;;5079003;28;20035;-57
2024/01/21 12:06:46;;;;;;;10.88;4.22;;;3.80;20.80;;;;;;5075187;28;20261;-49
2024/01/21 12:09:13;;;;;;;5.45;3.67;;;3.80;21.20;;;;;;5077600;28;20453;-54
2024/01/21 12:11:40;;;;;;;7.43;4.15;;;3.80;22.20;;;;;;5080622;28;20047;-60
2024/01/21 12:14:08;;;;;;;5.93;3.60;;;3.80;23.40;;;;;;5081911;28;20093;-53
2024/01/21 12:16:35;;;;;;;7.47;4.80;;;3.80;23.70;;;;;;5080948;28;20090;-54
2024/01/21 12:19:02;;;;;;;4.57;2.75;;;3.80;24.40;;;;;;5080678;28;20773;-51
2024/01/21 12:21:29;;;;;;;9.27;4.75;;;3.80;25.10;;;;;;5080205;28;20055;-60
2024/01/21 12:23:56;;;;;;;6.20;4.35;;;3.80;25.90;;;;;;5081542;28;20036;-55
2024/01/21 12:26:25;;;;;;;3.38;2.17;;;3.80;26.60;;;;;;5080292;28;20043;-56
2024/01/21 12:29:05;;;;;;;9.68;4.15;;;3.80;28.40;;;;;;5077210;28;20131;-59
2024/01/21 12:31:36;;;;;;;6.13;4.00;;;3.80;29.90;;;;;;5080024;28;20090;-59
2024/01/21 12:34:03;;;;;;;9.00;4.63;;;3.80;33.00;;;;;;5081841;28;20539;-53
2024/01/21 12:36:34;;;;;;;6.68;3.60;;;3.80;36.00;;;;;;5080395;28;20044;-59
2024/01/21 12:39:00;;;;;;;8.07;4.20;;;3.70;37.90;;;;;;5081790;28;20044;-52
2024/01/21 12:41:26;;;;;;;4.93;3.63;;;3.80;41.30;;;;;;5076133;28;20082;-52
2024/01/21 12:43:52;;;;;;;6.82;4.10;;;3.80;45.80;;;;;;5082118;28;20841;-57
2024/01/21 12:46:22;;;;;;;3.95;2.28;;;3.80;47.60;;;;;;5079489;28;20044;-50
2024/01/21 12:48:49;;;;;;;7.15;3.38;;;3.80;51.50;;;;;;5074284;28;20036;-58
2024/01/21 12:51:19;;;;;;;7.03;4.50;;;3.80;54.90;;;;;;5080412;28;20519;-48
2024/01/21 12:53:47;;;;;;;9.60;5.53;;;3.90;56.50;;;;;;5080098;28;20052;-61
2024/01/21 12:56:13;;;;;;;5.20;3.40;;;3.80;59.40;;;;;;5081930;28;20048;-56